createdAt,value
2017-09-05T00:00:59.013Z,92.10
2017-09-05T00:03:26.570Z,92.10
2017-09-05T00:05:54.843Z,92.20
2017-09-05T00:11:41.819Z,92.20
2017-09-05T00:14:14.987Z,92.20
2017-09-05T00:16:44.983Z,92.10
2017-09-05T00:19:16.286Z,91.90
2017-09-05T00:21:44.334Z,91.50
2017-09-05T00:24:11.844Z,91.10
2017-09-05T00:26:40.931Z,90.30
2017-09-05T00:29:08.444Z,90.30
2017-09-05T00:31:35.947Z,90.60
2017-09-05T00:34:03.450Z,90.90
2017-09-05T00:36:31.299Z,91.40
2017-09-05T00:38:58.998Z,91.60
2017-09-05T00:41:26.500Z,92.20
2017-09-05T00:43:54.011Z,92.20
2017-09-05T00:46:21.507Z,92.30
2017-09-05T00:48:52.923Z,92.40
2017-09-05T00:51:20.419Z,92.60
2017-09-05T00:53:49.356Z,92.50
2017-09-05T00:56:16.867Z,92.50
2017-09-05T00:58:44.875Z,92.50
2017-09-05T01:01:12.383Z,92.60
2017-09-05T01:03:39.879Z,92.80
2017-09-05T01:06:07.903Z,93.00
2017-09-05T01:08:35.408Z,93.10
2017-09-05T01:11:02.956Z,93.10
2017-09-05T01:13:30.468Z,93.10
2017-09-05T01:15:57.987Z,93.10
2017-09-05T01:18:25.503Z,93.20
2017-09-05T01:20:53.003Z,93.30
2017-09-05T01:23:21.412Z,93.50
2017-09-05T01:25:49.064Z,93.60
2017-09-05T01:28:16.667Z,93.60
2017-09-05T01:30:44.168Z,93.40
2017-09-05T01:33:11.663Z,93.00
2017-09-05T01:35:39.159Z,92.40
2017-09-05T01:38:06.767Z,91.90
2017-09-05T01:40:35.107Z,91.80
2017-09-05T01:43:02.707Z,91.90
2017-09-05T01:45:30.248Z,92.00
2017-09-05T01:47:57.746Z,92.30
2017-09-05T01:50:25.252Z,92.60
2017-09-05T01:52:52.744Z,92.70
2017-09-05T01:55:20.327Z,92.70
2017-09-05T01:57:48.755Z,92.80
2017-09-05T02:00:16.253Z,92.80
2017-09-05T02:02:43.967Z,92.90
2017-09-05T02:05:11.467Z,92.80
2017-09-05T02:07:39.217Z,92.90
2017-09-05T02:10:07.479Z,92.80
2017-09-05T02:12:34.991Z,92.90
2017-09-05T02:15:02.515Z,92.90
2017-09-05T02:17:30.019Z,92.70
2017-09-05T02:20:01.464Z,92.70
2017-09-05T02:22:28.971Z,92.30
2017-09-05T02:24:57.547Z,92.70
2017-09-05T02:27:25.272Z,92.70
2017-09-05T02:29:52.767Z,92.90
2017-09-05T02:32:20.280Z,92.60
2017-09-05T02:34:47.783Z,92.60
2017-09-05T02:37:16.220Z,92.80
2017-09-05T02:39:43.724Z,93.00
2017-09-05T02:42:11.233Z,92.80
2017-09-05T02:44:38.772Z,92.80
2017-09-05T02:47:06.309Z,93.40
2017-09-05T02:49:33.815Z,93.40
2017-09-05T02:52:01.682Z,93.40
2017-09-05T02:54:29.932Z,93.40
2017-09-05T02:56:57.582Z,93.30
2017-09-05T02:59:25.336Z,93.20
2017-09-05T03:01:52.872Z,93.10
2017-09-05T03:04:20.489Z,93.10
2017-09-05T03:06:48.936Z,93.20
2017-09-05T03:09:16.494Z,93.30
2017-09-05T03:11:44.006Z,93.50
2017-09-05T03:14:11.536Z,93.30
2017-09-05T03:16:39.051Z,93.20
2017-09-05T03:19:06.556Z,93.30
2017-09-05T03:21:34.056Z,93.10
2017-09-05T03:24:02.479Z,93.10
2017-09-05T03:26:29.987Z,93.30
2017-09-05T03:28:57.519Z,93.40
2017-09-05T03:31:25.027Z,93.50
2017-09-05T03:33:52.535Z,93.50
2017-09-05T03:36:20.250Z,93.30
2017-09-05T03:38:47.763Z,93.40
2017-09-05T03:41:16.187Z,93.60
2017-09-05T03:43:43.700Z,93.60
2017-09-05T03:46:11.200Z,93.20
2017-09-05T03:48:38.710Z,92.80
2017-09-05T03:51:09.215Z,92.80
2017-09-05T03:53:36.763Z,92.80
2017-09-05T03:56:04.262Z,93.00
2017-09-05T03:58:31.895Z,93.00
2017-09-05T04:01:00.003Z,93.00
2017-09-05T04:03:27.525Z,92.60
2017-09-05T04:05:55.231Z,92.60
2017-09-05T04:08:22.731Z,92.70
2017-09-05T04:10:50.235Z,92.90
2017-09-05T04:13:17.791Z,92.90
2017-09-05T04:15:45.335Z,93.10
2017-09-05T04:18:13.440Z,92.80
2017-09-05T04:20:40.940Z,92.90
2017-09-05T04:23:12.448Z,92.80
2017-09-05T04:25:39.963Z,92.80
2017-09-05T04:28:08.295Z,93.00
2017-09-05T04:30:35.800Z,93.00
2017-09-05T04:33:03.360Z,93.20
2017-09-05T04:35:30.875Z,93.00
2017-09-05T04:37:58.376Z,93.00
2017-09-05T04:40:25.887Z,92.80
2017-09-05T04:42:54.164Z,92.60
2017-09-05T04:45:21.663Z,92.60
2017-09-05T04:47:49.160Z,92.50
2017-09-05T04:50:17.491Z,92.20
2017-09-05T04:52:49.540Z,92.10
2017-09-05T04:55:17.059Z,92.00
2017-09-05T04:57:44.687Z,91.90
2017-09-05T05:00:12.184Z,91.60
2017-09-05T05:02:42.213Z,89.90
2017-09-05T05:05:09.723Z,89.80
2017-09-05T05:07:40.119Z,88.10
2017-09-05T05:10:07.664Z,86.70
2017-09-05T05:12:36.875Z,83.20
2017-09-05T05:15:04.391Z,83.20
2017-09-05T05:17:31.919Z,81.80
2017-09-05T05:19:59.863Z,80.20
2017-09-05T05:22:31.403Z,77.70
2017-09-05T05:24:58.903Z,76.00
2017-09-05T05:27:26.787Z,73.40
2017-09-05T05:29:54.514Z,70.60
2017-09-05T05:32:22.016Z,69.10
2017-09-05T05:34:50.499Z,69.10
2017-09-05T05:37:18.183Z,68.40
2017-09-05T05:39:45.695Z,66.60
2017-09-05T05:42:13.235Z,65.40
2017-09-05T05:44:40.767Z,64.40
2017-09-05T05:47:08.275Z,64.60
2017-09-05T05:49:35.788Z,66.30
2017-09-05T05:52:04.256Z,68.00
2017-09-05T05:54:32.871Z,71.00
2017-09-05T05:57:00.583Z,70.80
2017-09-05T05:59:28.831Z,72.60
2017-09-05T06:01:56.419Z,74.30
2017-09-05T06:04:24.000Z,74.00
2017-09-05T06:06:51.543Z,74.50
2017-09-05T06:09:19.099Z,75.50
2017-09-05T06:11:46.616Z,76.50
2017-09-05T06:14:14.151Z,77.90
2017-09-05T06:16:43.419Z,77.50
2017-09-05T06:19:10.939Z,77.50
2017-09-05T06:21:38.460Z,77.40
2017-09-05T06:24:07.801Z,77.30
2017-09-05T06:26:35.303Z,77.30
2017-09-05T06:29:02.815Z,76.70
2017-09-05T06:31:30.331Z,75.60
2017-09-05T06:33:58.664Z,74.90
2017-09-05T06:36:26.711Z,74.90
2017-09-05T06:38:54.212Z,74.20
2017-09-05T06:41:21.718Z,74.20
2017-09-05T06:43:49.236Z,73.70
2017-09-05T06:46:16.740Z,73.20
2017-09-05T06:48:44.254Z,72.80
2017-09-05T06:51:11.756Z,72.90
2017-09-05T06:53:40.276Z,72.00
2017-09-05T06:56:07.811Z,71.30
2017-09-05T06:58:35.324Z,71.60
2017-09-05T07:01:03.110Z,70.90
2017-09-05T07:03:31.127Z,71.10
2017-09-05T07:05:59.402Z,70.50
2017-09-05T07:08:28.221Z,70.00
2017-09-05T07:10:55.714Z,70.10
2017-09-05T07:13:24.035Z,70.10
2017-09-05T07:15:51.542Z,70.10
2017-09-05T07:18:19.071Z,70.10
2017-09-05T07:20:48.347Z,68.90
2017-09-05T07:23:15.851Z,68.80
2017-09-05T07:25:43.399Z,68.10
2017-09-05T07:28:10.899Z,68.00
2017-09-05T07:30:38.412Z,67.50
2017-09-05T07:33:06.128Z,67.70
2017-09-05T07:35:33.775Z,66.40
2017-09-05T07:38:02.649Z,66.20
2017-09-05T07:40:30.184Z,65.80
2017-09-05T07:42:58.468Z,64.70
2017-09-05T07:45:26.771Z,64.60
2017-09-05T07:47:54.283Z,63.90
2017-09-05T07:50:21.795Z,63.50
2017-09-05T07:52:49.365Z,62.60
2017-09-05T07:55:16.884Z,62.30
2017-09-05T07:57:44.392Z,62.30
2017-09-05T08:00:11.902Z,61.70
2017-09-05T08:02:39.651Z,60.90
2017-09-05T08:05:07.400Z,60.70
2017-09-05T08:07:34.911Z,60.60
2017-09-05T08:10:02.428Z,61.00
2017-09-05T08:12:30.232Z,61.30
2017-09-05T08:14:57.772Z,60.90
2017-09-05T08:17:25.337Z,60.50
2017-09-05T08:19:52.856Z,60.20
2017-09-05T08:22:20.369Z,59.80
2017-09-05T08:24:48.928Z,59.50
2017-09-05T08:27:16.484Z,59.50
2017-09-05T08:29:44.000Z,59.90
2017-09-05T08:32:11.499Z,59.50
2017-09-05T08:34:39.126Z,59.70
2017-09-05T08:37:06.652Z,59.40
2017-09-05T08:39:34.166Z,59.90
2017-09-05T08:42:02.080Z,59.80
2017-09-05T08:44:29.739Z,59.00
2017-09-05T08:46:57.235Z,58.50
2017-09-05T08:49:24.766Z,58.80
2017-09-05T08:51:52.284Z,58.20
2017-09-05T08:54:19.940Z,58.10
2017-09-05T08:56:47.461Z,57.70
2017-09-05T08:59:15.593Z,57.60
2017-09-05T09:01:43.099Z,57.30
2017-09-05T09:04:10.595Z,57.50
2017-09-05T09:06:38.439Z,57.50
2017-09-05T09:09:05.953Z,57.90
2017-09-05T09:11:33.459Z,57.30
2017-09-05T09:14:00.967Z,57.00
2017-09-05T09:16:29.227Z,57.10
2017-09-05T09:18:56.805Z,57.30
2017-09-05T09:21:24.328Z,57.10
2017-09-05T09:23:51.824Z,56.90
2017-09-05T09:26:19.358Z,56.50
2017-09-05T09:28:47.465Z,56.30
2017-09-05T09:31:15.014Z,56.70
2017-09-05T09:33:42.679Z,56.20
2017-09-05T09:36:10.183Z,56.10
2017-09-05T09:38:37.732Z,56.10
2017-09-05T09:41:05.228Z,56.60
2017-09-05T09:43:32.784Z,57.40
2017-09-05T09:46:00.460Z,57.10
2017-09-05T09:48:27.991Z,56.00
2017-09-05T09:50:56.170Z,56.20
2017-09-05T09:53:23.666Z,55.90
2017-09-05T09:55:51.239Z,55.10
2017-09-05T09:58:18.739Z,55.30
2017-09-05T10:00:46.256Z,55.30
2017-09-05T10:03:13.790Z,55.60
2017-09-05T10:05:41.339Z,54.20
2017-09-05T10:08:08.883Z,54.70
2017-09-05T10:10:36.908Z,54.50
2017-09-05T10:13:04.431Z,54.70
2017-09-05T10:15:31.977Z,54.50
2017-09-05T10:17:59.542Z,54.30
2017-09-05T10:20:27.047Z,54.20
2017-09-05T10:22:54.557Z,54.20
2017-09-05T10:25:22.096Z,54.70
2017-09-05T10:27:49.591Z,55.30
2017-09-05T10:30:22.140Z,55.20
2017-09-05T10:32:50.108Z,54.70
2017-09-05T10:35:18.294Z,54.30
2017-09-05T10:37:45.805Z,54.40
2017-09-05T10:40:13.335Z,54.20
2017-09-05T10:42:40.872Z,54.20
2017-09-05T10:45:08.429Z,53.30
2017-09-05T10:47:35.993Z,53.40
2017-09-05T10:50:03.491Z,53.60
2017-09-05T10:52:30.999Z,53.40
2017-09-05T10:54:59.203Z,53.90
2017-09-05T10:57:26.839Z,54.00
2017-09-05T10:59:54.675Z,54.60
2017-09-05T11:02:22.455Z,55.40
2017-09-05T11:04:49.965Z,55.40
2017-09-05T11:07:17.456Z,54.10
2017-09-05T11:09:46.376Z,54.60
2017-09-05T11:12:14.039Z,54.60
2017-09-05T11:14:46.220Z,54.60
2017-09-05T11:17:13.760Z,54.20
2017-09-05T11:19:41.456Z,53.50
2017-09-05T11:22:09.051Z,53.20
2017-09-05T11:24:36.648Z,53.30
2017-09-05T11:27:04.400Z,53.20
2017-09-05T11:29:31.902Z,52.80
2017-09-05T11:32:00.811Z,52.90
2017-09-05T11:34:28.320Z,52.90
2017-09-05T11:36:55.819Z,52.70
2017-09-05T11:39:23.355Z,52.40
2017-09-05T11:41:51.542Z,51.90
2017-09-05T11:44:21.833Z,53.10
2017-09-05T11:46:50.161Z,54.20
2017-09-05T11:49:17.720Z,54.40
2017-09-05T11:51:45.237Z,54.90
2017-09-05T11:54:12.836Z,54.50
2017-09-05T11:56:40.348Z,54.30
2017-09-05T11:59:10.874Z,54.80
2017-09-05T12:01:39.973Z,53.60
2017-09-05T12:04:07.505Z,53.50
2017-09-05T12:06:35.027Z,53.90
2017-09-05T12:09:04.163Z,52.80
2017-09-05T12:11:31.955Z,52.80
2017-09-05T12:13:59.612Z,53.10
2017-09-05T12:16:27.115Z,52.90
2017-09-05T12:18:54.838Z,52.90
2017-09-05T12:21:22.728Z,51.70
2017-09-05T12:23:50.239Z,51.50
2017-09-05T12:26:17.813Z,51.80
2017-09-05T12:28:45.320Z,51.60
2017-09-05T12:31:13.027Z,50.80
2017-09-05T12:33:40.787Z,50.60
2017-09-05T12:36:08.528Z,51.60
2017-09-05T12:38:36.629Z,52.00
2017-09-05T12:41:04.380Z,50.60
2017-09-05T12:43:31.951Z,51.80
2017-09-05T12:45:59.448Z,51.00
2017-09-05T12:48:27.000Z,51.10
2017-09-05T12:50:55.224Z,50.90
2017-09-05T12:53:22.735Z,52.20
2017-09-05T12:55:50.356Z,52.40
2017-09-05T12:58:18.106Z,52.50
2017-09-05T13:00:45.617Z,51.90
2017-09-05T13:03:13.169Z,52.70
2017-09-05T13:05:40.840Z,52.30
2017-09-05T13:08:09.477Z,51.40
2017-09-05T13:10:37.095Z,51.30
2017-09-05T13:13:05.649Z,51.30
2017-09-05T13:15:33.628Z,51.30
2017-09-05T13:18:01.174Z,52.90
2017-09-05T13:20:28.679Z,54.10
2017-09-05T13:22:56.176Z,54.30
2017-09-05T13:25:24.443Z,54.90
2017-09-05T13:27:52.916Z,54.90
2017-09-05T13:30:20.452Z,55.00
2017-09-05T13:32:48.105Z,55.20
2017-09-05T13:35:15.635Z,55.40
2017-09-05T13:37:43.163Z,55.10
2017-09-05T13:40:10.707Z,55.20
2017-09-05T13:42:38.266Z,54.50
2017-09-05T13:45:07.152Z,54.50
2017-09-05T13:47:34.697Z,54.50
2017-09-05T13:50:02.204Z,55.20
2017-09-05T13:52:29.887Z,57.20
2017-09-05T13:54:57.656Z,57.40
2017-09-05T13:57:26.643Z,58.30
2017-09-05T13:59:54.244Z,58.30
2017-09-05T14:02:21.751Z,57.20
2017-09-05T14:04:49.293Z,57.80
2017-09-05T14:07:16.834Z,58.30
2017-09-05T14:09:45.147Z,57.90
2017-09-05T14:12:12.653Z,56.80
2017-09-05T14:14:40.931Z,56.70
2017-09-05T14:17:08.496Z,56.30
2017-09-05T14:19:36.003Z,57.40
2017-09-05T14:22:04.269Z,57.20
2017-09-05T14:24:31.829Z,56.90
2017-09-05T14:26:59.348Z,56.30
2017-09-05T14:29:27.050Z,55.60
2017-09-05T14:31:54.539Z,56.30
2017-09-05T14:34:22.171Z,56.00
2017-09-05T14:36:49.667Z,56.50
2017-09-05T14:39:18.004Z,56.70
2017-09-05T14:41:45.509Z,56.60
2017-09-05T14:44:13.011Z,56.20
2017-09-05T14:46:40.857Z,55.30
2017-09-05T14:49:08.367Z,55.20
2017-09-05T14:51:35.867Z,55.30
2017-09-05T14:54:03.380Z,54.80
2017-09-05T14:56:31.132Z,55.50
2017-09-05T14:58:58.884Z,55.90
2017-09-05T15:01:26.392Z,56.40
2017-09-05T15:03:54.213Z,56.70
2017-09-05T15:06:21.719Z,57.00
2017-09-05T15:08:49.288Z,57.00
2017-09-05T15:11:17.116Z,56.20
2017-09-05T15:13:45.831Z,55.70
2017-09-05T15:16:13.372Z,55.70
2017-09-05T15:18:40.923Z,54.80
2017-09-05T15:21:08.649Z,55.20
2017-09-05T15:23:36.143Z,54.90
2017-09-05T15:26:04.907Z,55.00
2017-09-05T15:28:32.412Z,54.90
2017-09-05T15:30:59.999Z,56.10
2017-09-05T15:33:27.603Z,56.80
2017-09-05T15:35:55.115Z,57.90
2017-09-05T15:38:23.332Z,58.00
2017-09-05T15:40:50.853Z,59.80
2017-09-05T15:43:18.352Z,59.80
2017-09-05T15:45:45.894Z,61.10
2017-09-05T15:48:16.199Z,59.80
2017-09-05T15:50:44.032Z,60.40
2017-09-05T15:53:11.548Z,60.50
2017-09-05T15:55:39.074Z,60.60
2017-09-05T15:58:07.177Z,60.60
2017-09-05T16:00:35.194Z,61.10
2017-09-05T16:03:02.706Z,62.60
2017-09-05T16:05:33.139Z,63.20
2017-09-05T16:08:00.712Z,64.10
2017-09-05T16:10:28.344Z,62.50
2017-09-05T16:12:56.600Z,65.50
2017-09-05T16:15:24.188Z,65.50
2017-09-05T16:17:51.753Z,66.10
2017-09-05T16:20:19.308Z,66.10
2017-09-05T16:22:46.823Z,65.80
2017-09-05T16:25:14.327Z,66.20
2017-09-05T16:27:41.892Z,65.00
2017-09-05T16:30:10.145Z,65.10
2017-09-05T16:32:37.923Z,63.90
2017-09-05T16:35:05.492Z,64.50
2017-09-05T16:37:33.003Z,62.90
2017-09-05T16:40:00.567Z,64.80
2017-09-05T16:42:28.140Z,63.40
2017-09-05T16:44:56.099Z,63.70
2017-09-05T16:47:23.855Z,64.00
2017-09-05T16:49:51.401Z,63.50
2017-09-05T16:52:18.936Z,64.10
2017-09-05T16:54:46.439Z,63.40
2017-09-05T16:57:14.183Z,64.20
2017-09-05T16:59:42.707Z,64.60
2017-09-05T17:02:10.310Z,64.60
2017-09-05T17:04:37.872Z,65.00
2017-09-05T17:07:05.480Z,65.50
2017-09-05T17:09:33.100Z,66.20
2017-09-05T17:12:00.971Z,66.70
2017-09-05T17:14:28.601Z,67.30
2017-09-05T17:16:56.713Z,67.80
2017-09-05T17:19:28.568Z,68.40
2017-09-05T17:21:56.351Z,68.90
2017-09-05T17:24:24.748Z,69.10
2017-09-05T17:26:52.308Z,69.00
2017-09-05T17:29:19.918Z,69.90
2017-09-05T17:31:47.671Z,71.30
2017-09-05T17:34:15.993Z,71.50
2017-09-05T17:36:48.983Z,73.00
2017-09-05T17:39:16.572Z,73.20
2017-09-05T17:41:44.662Z,74.10
2017-09-05T17:44:12.361Z,74.30
2017-09-05T17:46:41.556Z,76.20
2017-09-05T17:49:09.059Z,76.10
2017-09-05T17:51:36.840Z,75.80
2017-09-05T17:54:04.348Z,76.20
2017-09-05T17:56:31.947Z,76.00
2017-09-05T17:59:00.474Z,76.00
2017-09-05T18:01:28.314Z,76.00
2017-09-05T18:03:56.002Z,76.80
2017-09-05T18:06:28.087Z,77.10
2017-09-05T18:08:56.826Z,76.90
2017-09-05T18:11:25.265Z,76.90
2017-09-05T18:13:52.836Z,77.70
2017-09-05T18:16:20.734Z,77.20
2017-09-05T18:18:48.803Z,76.40
2017-09-05T18:21:16.709Z,76.20
2017-09-05T18:23:44.947Z,77.10
2017-09-05T18:26:12.730Z,77.30
2017-09-05T18:28:40.709Z,77.80
2017-09-05T18:31:09.472Z,77.20
2017-09-05T18:33:37.036Z,77.40
2017-09-05T18:36:07.408Z,77.20
2017-09-05T18:38:34.990Z,77.60
2017-09-05T18:41:03.199Z,76.90
2017-09-05T18:43:31.053Z,77.90
2017-09-05T18:45:59.127Z,78.40
2017-09-05T18:48:26.763Z,78.80
2017-09-05T18:50:57.998Z,79.10
2017-09-05T18:53:26.105Z,80.00
2017-09-05T18:55:54.177Z,79.90
2017-09-05T18:58:22.248Z,79.70
2017-09-05T19:00:49.916Z,80.10
2017-09-05T19:03:17.664Z,78.80
2017-09-05T19:05:45.540Z,79.40
2017-09-05T19:08:13.613Z,78.80
2017-09-05T19:10:41.176Z,78.90
2017-09-05T19:13:08.793Z,79.40
2017-09-05T19:15:37.420Z,79.50
2017-09-05T19:18:05.028Z,79.70
2017-09-05T19:20:32.740Z,80.20
2017-09-05T19:23:00.336Z,80.30
2017-09-05T19:25:28.785Z,80.30
2017-09-05T19:27:57.032Z,80.40
2017-09-05T19:30:25.950Z,80.90
2017-09-05T19:32:53.496Z,81.30
2017-09-05T19:35:21.534Z,81.60
2017-09-05T19:37:49.554Z,81.60
2017-09-05T19:40:17.628Z,82.20
2017-09-05T19:42:46.626Z,82.40
2017-09-05T19:45:14.131Z,82.70
2017-09-05T19:47:42.144Z,83.00
2017-09-05T19:50:09.670Z,83.10
2017-09-05T19:52:37.233Z,83.60
2017-09-05T19:55:05.651Z,83.80
2017-09-05T19:57:33.690Z,84.20
2017-09-05T20:00:01.261Z,83.90
2017-09-05T20:02:29.031Z,83.90
2017-09-05T20:04:56.676Z,84.10
2017-09-05T20:07:24.851Z,83.80
2017-09-05T20:09:52.411Z,83.30
2017-09-05T20:12:19.956Z,83.50
2017-09-05T20:14:47.852Z,84.30
2017-09-05T20:17:15.436Z,84.40
2017-09-05T20:19:44.533Z,85.60
2017-09-05T20:22:12.629Z,85.60
2017-09-05T20:24:40.228Z,85.80
2017-09-05T20:27:08.333Z,85.80
2017-09-05T20:29:35.900Z,85.10
2017-09-05T20:32:03.431Z,85.40
2017-09-05T20:34:31.024Z,85.20
2017-09-05T20:36:58.958Z,85.10
2017-09-05T20:39:26.600Z,85.40
2017-09-05T20:41:56.815Z,85.30
2017-09-05T20:44:24.381Z,85.20
2017-09-05T20:46:52.084Z,85.80
2017-09-05T20:49:19.775Z,85.60
2017-09-05T20:51:47.283Z,85.80
2017-09-05T20:54:14.905Z,86.10
2017-09-05T20:56:45.908Z,86.40
2017-09-05T20:59:13.476Z,86.70
2017-09-05T21:01:41.677Z,87.00
2017-09-05T21:04:09.241Z,86.90
2017-09-05T21:06:36.851Z,87.10
2017-09-05T21:09:04.423Z,87.00
2017-09-05T21:11:43.000Z,86.70
2017-09-05T21:14:10.729Z,86.90
2017-09-05T21:16:38.296Z,86.80
2017-09-05T21:19:06.123Z,87.10
2017-09-05T21:21:33.951Z,87.00
2017-09-05T21:24:01.999Z,86.90
2017-09-05T21:26:29.502Z,86.90
2017-09-05T21:28:57.029Z,87.10
2017-09-05T21:31:24.851Z,86.80
2017-09-05T21:33:52.422Z,87.00
2017-09-05T21:36:20.694Z,86.80
2017-09-05T21:38:48.249Z,86.80
2017-09-05T21:41:15.826Z,87.50
2017-09-05T21:43:43.782Z,86.60
2017-09-05T21:46:11.487Z,86.60
2017-09-05T21:48:39.924Z,87.10
2017-09-05T21:51:07.431Z,86.30
2017-09-05T21:53:35.105Z,86.10
2017-09-05T21:56:02.619Z,86.30
2017-09-05T21:58:30.936Z,86.40
2017-09-05T22:00:59.493Z,86.40
2017-09-05T22:03:27.017Z,86.50
2017-09-05T22:05:54.623Z,86.50
2017-09-05T22:08:22.633Z,86.70
2017-09-05T22:10:50.186Z,86.30
2017-09-05T22:13:18.321Z,86.40
2017-09-05T22:15:45.923Z,86.50
2017-09-05T22:18:13.463Z,86.50
2017-09-05T22:20:46.609Z,86.50
2017-09-05T22:23:14.160Z,86.00
2017-09-05T22:25:50.252Z,85.60
2017-09-05T22:28:23.659Z,85.90
2017-09-05T22:30:51.243Z,85.90
2017-09-05T22:33:18.744Z,86.00
2017-09-05T22:35:46.458Z,86.50
2017-09-05T22:38:14.917Z,86.00
2017-09-05T22:40:42.423Z,86.30
2017-09-05T22:43:09.983Z,86.10
2017-09-05T22:45:37.510Z,86.10
2017-09-05T22:48:05.037Z,86.00
2017-09-05T22:50:32.802Z,85.80
2017-09-05T22:53:00.561Z,86.00
2017-09-05T22:55:36.013Z,86.20
2017-09-05T22:58:03.517Z,86.40
2017-09-05T23:00:31.032Z,86.40
2017-09-05T23:02:59.309Z,86.40
2017-09-05T23:05:27.020Z,86.50
2017-09-05T23:07:54.545Z,86.40
2017-09-05T23:10:22.060Z,86.90
2017-09-05T23:12:50.361Z,86.90
2017-09-05T23:15:18.132Z,86.90
2017-09-05T23:17:45.632Z,87.20
2017-09-05T23:20:13.168Z,87.30
2017-09-05T23:22:40.675Z,87.00
2017-09-05T23:25:08.171Z,86.60
2017-09-05T23:27:35.671Z,86.90
2017-09-05T23:30:03.279Z,87.00
2017-09-05T23:32:30.799Z,87.20
2017-09-05T23:34:58.304Z,87.70
2017-09-05T23:37:26.468Z,87.70
2017-09-05T23:39:53.967Z,87.90
2017-09-05T23:42:21.474Z,88.50
2017-09-05T23:44:48.989Z,88.60
2017-09-05T23:47:16.524Z,89.60
2017-09-05T23:49:44.027Z,90.00
2017-09-05T23:52:11.530Z,88.60
2017-09-05T23:54:39.280Z,89.20
2017-09-05T23:57:06.783Z,89.60
2017-09-05T23:59:34.787Z,89.90
